createdAt,value
2022-12-15T00:00:12.962Z,-3.20
2022-12-15T00:02:58.782Z,-3.20
2022-12-15T00:11:22.617Z,-3.30
2022-12-15T00:16:55.900Z,-3.20
2022-12-15T00:30:49.862Z,-3.20
2022-12-15T00:33:37.165Z,-3.20
2022-12-15T00:41:20.346Z,-3.00
2022-12-15T00:43:48.949Z,-3.30
2022-12-15T00:49:24.778Z,-1.60
2022-12-15T01:00:30.196Z,-3.00
2022-12-15T01:06:03.318Z,-3.20
2022-12-15T01:11:36.051Z,-3.10
2022-12-15T01:19:54.643Z,-3.40
2022-12-15T01:22:24.777Z,-3.20
2022-12-15T01:40:03.021Z,-2.60
2022-12-15T01:45:33.743Z,-2.60
2022-12-15T01:48:06.058Z,-2.70
2022-12-15T01:50:38.610Z,-2.80
2022-12-15T01:55:37.807Z,-2.70
2022-12-15T01:58:09.176Z,-2.70
2022-12-15T02:03:08.106Z,-2.60
2022-12-15T02:08:06.086Z,-2.70
2022-12-15T02:10:48.451Z,-2.70
2022-12-15T02:13:24.605Z,-3.20
2022-12-15T02:16:00.718Z,-3.00
2022-12-15T02:18:36.360Z,-2.80
2022-12-15T02:21:11.204Z,-2.70
2022-12-15T02:24:30.137Z,-2.80
2022-12-15T02:27:35.407Z,-2.80
2022-12-15T02:30:35.358Z,-2.30
2022-12-15T02:33:13.228Z,-2.20
2022-12-15T02:35:53.702Z,-2.40
2022-12-15T02:38:31.268Z,-2.80
2022-12-15T02:41:01.113Z,-2.90
2022-12-15T02:43:31.385Z,-2.70
2022-12-15T02:46:16.786Z,-3.10
2022-12-15T02:49:00.197Z,-3.00
2022-12-15T02:51:45.194Z,-3.20
2022-12-15T02:54:29.276Z,-2.50
2022-12-15T02:57:06.098Z,-2.80
2022-12-15T02:59:43.332Z,-2.60
2022-12-15T03:02:16.054Z,-2.20
2022-12-15T03:04:45.588Z,-2.70
2022-12-15T03:07:15.640Z,-2.70
2022-12-15T03:14:40.822Z,-2.40
2022-12-15T03:17:08.900Z,-2.60
2022-12-15T03:19:38.404Z,-2.60
2022-12-15T03:22:06.776Z,-2.60
2022-12-15T03:29:32.169Z,-2.20
2022-12-15T03:34:28.880Z,-2.20
2022-12-15T03:36:59.270Z,-2.10
2022-12-15T03:39:27.833Z,-2.00
2022-12-15T03:44:24.333Z,-1.80
2022-12-15T03:49:20.868Z,-2.30
2022-12-15T03:54:18.791Z,-2.30
2022-12-15T04:01:48.314Z,-2.20
2022-12-15T04:11:44.363Z,-1.90
2022-12-15T04:16:41.036Z,-2.00
2022-12-15T04:27:29.622Z,-2.60
2022-12-15T04:33:01.561Z,-2.40
2022-12-15T04:41:21.494Z,-2.00
2022-12-15T04:44:09.021Z,-2.00
2022-12-15T04:46:54.714Z,-1.60
2022-12-15T04:49:40.281Z,-1.60
2022-12-15T05:00:45.697Z,-1.80
2022-12-15T05:33:44.837Z,-2.10
2022-12-15T05:51:07.528Z,-2.60
2022-12-15T06:01:06.527Z,-2.60
2022-12-15T06:06:03.993Z,-2.90
2022-12-15T06:08:35.179Z,-3.10
2022-12-15T06:13:34.856Z,-2.80
2022-12-15T06:16:05.764Z,-2.80
2022-12-15T06:18:36.217Z,-3.20
2022-12-15T06:21:07.126Z,-3.10
2022-12-15T06:23:37.475Z,-2.90
2022-12-15T06:26:11.184Z,-2.90
2022-12-15T06:36:08.765Z,-2.90
2022-12-15T06:38:38.617Z,-3.20
2022-12-15T06:41:08.250Z,-3.00
2022-12-15T06:51:05.052Z,-3.20
2022-12-15T07:01:07.906Z,-2.40
2022-12-15T07:03:37.521Z,-2.80
2022-12-15T07:06:08.299Z,-2.60
2022-12-15T07:11:13.759Z,-2.50
2022-12-15T07:16:12.450Z,-2.90
2022-12-15T07:21:10.846Z,-2.90
2022-12-15T07:26:24.866Z,-3.30
2022-12-15T07:28:53.735Z,-3.10
2022-12-15T07:33:52.773Z,-2.60
2022-12-15T07:41:21.035Z,-2.60
2022-12-15T07:43:50.469Z,-2.70
2022-12-15T07:46:19.378Z,-1.90
2022-12-15T07:48:48.289Z,-2.80
2022-12-15T07:51:21.325Z,-2.70
2022-12-15T07:53:51.197Z,-2.90
2022-12-15T07:56:20.495Z,-2.90
2022-12-15T07:58:50.132Z,-3.60
2022-12-15T08:01:19.418Z,-2.70
2022-12-15T08:03:48.308Z,-2.70
2022-12-15T08:06:16.923Z,-2.50
2022-12-15T08:08:50.766Z,-2.20
2022-12-15T08:11:21.855Z,-2.30
2022-12-15T08:14:10.534Z,-2.10
2022-12-15T08:16:40.035Z,-2.30
2022-12-15T08:19:11.854Z,-1.90
2022-12-15T08:21:41.353Z,-1.70
2022-12-15T08:26:39.154Z,-1.10
2022-12-15T08:29:49.105Z,-1.70
2022-12-15T08:34:28.473Z,-2.10
2022-12-15T08:41:53.745Z,-1.70
2022-12-15T08:44:23.552Z,-2.00
2022-12-15T08:49:22.283Z,-1.90
2022-12-15T08:51:51.585Z,-2.30
2022-12-15T08:54:21.496Z,-2.20
2022-12-15T09:01:50.694Z,-2.60
2022-12-15T09:04:19.148Z,-2.20
2022-12-15T09:09:20.110Z,-2.50
2022-12-15T09:11:48.537Z,-2.30
2022-12-15T09:14:17.220Z,-2.10
2022-12-15T09:16:45.872Z,-2.40
2022-12-15T09:19:20.362Z,-1.90
2022-12-15T09:21:49.580Z,-2.10
2022-12-15T09:29:29.156Z,-2.00
2022-12-15T09:31:57.409Z,-1.80
2022-12-15T09:34:31.130Z,-1.60
2022-12-15T09:36:59.596Z,-1.90
2022-12-15T09:39:27.881Z,-1.80
2022-12-15T09:41:59.687Z,-1.70
2022-12-15T09:44:30.885Z,-1.50
2022-12-15T09:47:13.144Z,-1.80
2022-12-15T09:49:53.641Z,-1.80
2022-12-15T09:52:24.869Z,-1.70
2022-12-15T09:54:55.716Z,-1.60
2022-12-15T09:57:32.629Z,-2.00
2022-12-15T10:00:15.494Z,-1.50
2022-12-15T10:03:31.165Z,-1.70
2022-12-15T10:06:20.117Z,-1.60
2022-12-15T10:08:55.236Z,-1.60
2022-12-15T10:11:36.927Z,-1.20
2022-12-15T10:14:14.383Z,-1.60
2022-12-15T10:16:52.734Z,-1.50
2022-12-15T10:19:27.858Z,-1.90
2022-12-15T10:21:58.310Z,-1.70
2022-12-15T10:25:07.913Z,-2.30
2022-12-15T10:27:31.354Z,-2.00
2022-12-15T10:30:02.842Z,-2.20
2022-12-15T10:32:43.862Z,-1.70
2022-12-15T10:35:17.039Z,-2.10
2022-12-15T10:37:47.013Z,-2.00
2022-12-15T10:40:21.592Z,-2.00
2022-12-15T10:42:51.920Z,-2.10
2022-12-15T10:45:35.771Z,-2.10
2022-12-15T10:48:06.695Z,-2.40
2022-12-15T10:50:35.592Z,-2.40
2022-12-15T10:53:09.678Z,-2.20
2022-12-15T10:55:40.407Z,-2.20
2022-12-15T10:58:18.951Z,-2.50
2022-12-15T11:03:25.119Z,-3.20
2022-12-15T11:05:54.459Z,-2.10
2022-12-15T11:08:25.941Z,-2.10
2022-12-15T11:11:19.135Z,-2.20
2022-12-15T11:14:07.572Z,-2.30
2022-12-15T11:19:12.433Z,-2.00
2022-12-15T11:21:46.064Z,-2.00
2022-12-15T11:24:26.122Z,-1.80
2022-12-15T11:26:59.342Z,-2.10
2022-12-15T11:29:34.749Z,-2.70
2022-12-15T11:34:40.116Z,-2.90
2022-12-15T11:37:24.060Z,-2.60
2022-12-15T11:40:06.796Z,-2.50
2022-12-15T11:42:48.903Z,-2.60
2022-12-15T11:45:23.884Z,-2.70
2022-12-15T11:47:57.030Z,-2.20
2022-12-15T11:50:31.567Z,-2.50
2022-12-15T11:53:16.169Z,-2.50
2022-12-15T11:55:54.246Z,-2.50
2022-12-15T11:58:51.948Z,-2.70
2022-12-15T12:01:36.829Z,-3.00
2022-12-15T12:04:17.709Z,-3.00
2022-12-15T12:06:55.776Z,-3.00
2022-12-15T12:09:30.730Z,-2.90
2022-12-15T12:12:11.945Z,-2.90
2022-12-15T12:14:52.281Z,-2.70
2022-12-15T12:17:32.415Z,-2.80
2022-12-15T12:20:11.214Z,-2.90
2022-12-15T12:22:43.853Z,-2.90
2022-12-15T12:25:16.014Z,-3.10
2022-12-15T12:27:53.122Z,-2.60
2022-12-15T12:30:23.440Z,-2.50
2022-12-15T12:32:59.719Z,-2.70
2022-12-15T12:35:37.558Z,-2.90
2022-12-15T12:38:06.947Z,-3.10
2022-12-15T12:40:50.312Z,-2.40
2022-12-15T12:43:33.311Z,-2.70
2022-12-15T12:46:09.021Z,-2.90
2022-12-15T12:48:42.883Z,-3.20
2022-12-15T12:51:21.257Z,-2.60
2022-12-15T12:53:50.379Z,-2.70
2022-12-15T12:56:41.692Z,-2.70
2022-12-15T12:59:39.994Z,-2.70
2022-12-15T13:02:46.639Z,-2.70
2022-12-15T13:05:27.803Z,-2.60
2022-12-15T13:07:57.933Z,-2.20
2022-12-15T13:12:59.133Z,-2.20
2022-12-15T13:15:42.487Z,0.60
2022-12-15T13:18:18.019Z,-2.40
2022-12-15T13:20:50.712Z,-2.40
2022-12-15T13:23:50.388Z,-2.40
2022-12-15T13:26:20.941Z,-2.60
2022-12-15T13:28:58.229Z,-2.60
2022-12-15T13:31:43.446Z,-2.80
2022-12-15T13:34:18.740Z,-3.30
2022-12-15T13:36:55.173Z,-2.60
2022-12-15T13:39:36.449Z,-3.10
2022-12-15T13:42:45.338Z,-2.80
2022-12-15T13:48:43.830Z,-3.30
2022-12-15T13:51:25.331Z,-3.20
2022-12-15T13:53:59.461Z,-3.20
2022-12-15T13:56:41.159Z,-3.10
2022-12-15T13:59:19.794Z,-3.20
2022-12-15T14:01:52.781Z,-3.30
2022-12-15T14:04:23.726Z,-3.40
2022-12-15T14:06:54.873Z,-1.60
2022-12-15T14:09:28.438Z,-3.40
2022-12-15T14:14:28.505Z,-3.20
2022-12-15T14:17:02.614Z,-3.30
2022-12-15T14:19:42.822Z,-3.50
2022-12-15T14:22:28.271Z,-3.60
2022-12-15T14:25:02.837Z,-3.40
2022-12-15T14:27:33.413Z,-3.70
2022-12-15T14:30:23.473Z,-3.50
2022-12-15T14:32:55.973Z,-3.90
2022-12-15T14:35:31.118Z,-3.90
2022-12-15T14:38:02.788Z,-4.10
2022-12-15T14:43:00.407Z,-5.40
2022-12-15T14:45:32.160Z,-3.80
2022-12-15T14:48:39.643Z,-3.70
2022-12-15T14:50:52.982Z,-3.90
2022-12-15T14:53:23.425Z,-4.00
2022-12-15T14:58:33.903Z,-3.70
2022-12-15T15:01:03.934Z,-3.50
2022-12-15T15:03:12.028Z,-2.90
2022-12-15T15:03:38.465Z,-4.10
2022-12-15T15:06:19.139Z,-4.00
2022-12-15T15:08:50.169Z,-4.20
2022-12-15T15:11:29.796Z,-4.00
2022-12-15T15:14:01.213Z,-4.00
2022-12-15T15:19:00.780Z,-4.10
2022-12-15T15:21:35.349Z,-3.90
2022-12-15T15:24:05.820Z,-3.90
2022-12-15T15:31:41.475Z,-4.20
2022-12-15T15:36:41.747Z,-3.80
2022-12-15T15:39:16.287Z,-3.70
2022-12-15T15:41:44.767Z,-3.60
2022-12-15T15:44:14.912Z,-3.50
2022-12-15T15:46:47.810Z,-3.70
2022-12-15T15:49:19.265Z,-3.80
2022-12-15T15:51:49.457Z,-3.70
2022-12-15T15:54:19.616Z,-3.80
2022-12-15T15:56:47.786Z,-4.00
2022-12-15T15:59:18.311Z,-3.80
2022-12-15T16:01:49.179Z,-3.80
2022-12-15T16:04:17.581Z,-3.40
2022-12-15T16:06:47.771Z,-3.40
2022-12-15T16:09:17.970Z,-3.10
2022-12-15T16:11:47.554Z,-3.30
2022-12-15T16:14:17.655Z,-3.10
2022-12-15T16:16:46.306Z,-3.20
2022-12-15T16:19:14.545Z,-3.10
2022-12-15T16:21:44.053Z,-3.10
2022-12-15T16:24:17.065Z,-2.90
2022-12-15T16:26:50.016Z,-3.10
2022-12-15T16:29:20.467Z,-3.50
2022-12-15T16:31:48.905Z,-3.50
2022-12-15T16:34:17.722Z,-3.30
2022-12-15T16:36:46.810Z,-3.50
2022-12-15T16:39:26.553Z,-3.40
2022-12-15T16:41:57.344Z,-3.40
2022-12-15T16:44:26.634Z,-3.30
2022-12-15T16:46:54.894Z,-3.00
2022-12-15T16:49:23.579Z,-3.00
2022-12-15T16:51:53.691Z,-2.70
2022-12-15T16:54:25.389Z,-2.70
2022-12-15T16:56:55.390Z,-2.60
2022-12-15T16:59:34.923Z,-2.60
2022-12-15T17:02:21.119Z,-2.90
2022-12-15T17:04:50.338Z,-2.90
2022-12-15T17:09:50.939Z,-2.70
2022-12-15T17:12:20.754Z,-2.60
2022-12-15T17:14:49.139Z,-2.30
2022-12-15T17:17:19.368Z,-2.30
2022-12-15T17:20:19.722Z,-2.30
2022-12-15T17:22:38.293Z,-2.40
2022-12-15T17:25:07.686Z,-2.40
2022-12-15T17:27:37.318Z,-2.20
2022-12-15T17:30:06.379Z,-1.70
2022-12-15T17:32:34.677Z,-2.20
2022-12-15T17:40:04.834Z,-2.40
2022-12-15T17:42:33.026Z,-2.40
2022-12-15T17:45:02.798Z,-2.60
2022-12-15T17:47:31.151Z,-2.10
2022-12-15T17:49:59.894Z,-2.60
2022-12-15T17:52:30.283Z,-2.20
2022-12-15T17:54:58.863Z,-2.40
2022-12-15T17:59:55.881Z,-2.20
2022-12-15T18:02:25.651Z,-2.20
2022-12-15T18:04:55.333Z,-2.20
2022-12-15T18:07:24.988Z,-2.30
2022-12-15T18:09:54.147Z,-1.90
2022-12-15T18:12:24.811Z,-2.20
2022-12-15T18:17:22.634Z,-2.30
2022-12-15T18:19:52.348Z,-2.60
2022-12-15T18:22:23.571Z,-2.60
2022-12-15T18:24:53.787Z,-2.50
2022-12-15T18:27:24.761Z,-2.40
2022-12-15T18:32:27.009Z,0.90
2022-12-15T18:34:57.029Z,-2.50
2022-12-15T18:37:25.872Z,-2.50
2022-12-15T18:39:57.115Z,-2.30
2022-12-15T18:42:30.920Z,-2.40
2022-12-15T18:45:00.577Z,-2.20
2022-12-15T18:47:28.883Z,-2.20
2022-12-15T18:50:00.382Z,-2.10
2022-12-15T18:52:34.262Z,-2.20
2022-12-15T18:55:03.067Z,-2.20
2022-12-15T18:57:33.417Z,-2.30
2022-12-15T19:00:07.970Z,-1.30
2022-12-15T19:02:36.357Z,-2.30
2022-12-15T19:05:07.078Z,-2.10
2022-12-15T19:07:37.132Z,-2.10
2022-12-15T19:10:05.960Z,-2.20
2022-12-15T19:12:34.354Z,-2.00
2022-12-15T19:15:02.654Z,-2.00
2022-12-15T19:17:48.298Z,-1.30
2022-12-15T19:20:38.397Z,-1.40
2022-12-15T19:23:07.197Z,-2.00
2022-12-15T19:25:36.355Z,0.10
2022-12-15T19:28:05.218Z,-1.40
2022-12-15T19:30:40.236Z,-2.10
2022-12-15T19:33:09.981Z,-2.10
2022-12-15T19:35:40.575Z,-1.60
2022-12-15T19:38:11.627Z,-1.70
2022-12-15T19:43:14.207Z,-2.10
2022-12-15T19:45:42.565Z,-1.30
2022-12-15T19:48:12.191Z,-2.00
2022-12-15T19:50:43.447Z,-2.10
2022-12-15T19:53:17.503Z,-2.30
2022-12-15T19:55:46.782Z,-2.20
2022-12-15T19:58:29.722Z,-2.20
2022-12-15T20:00:59.485Z,-2.10
2022-12-15T20:03:28.752Z,-1.90
2022-12-15T20:05:59.989Z,-1.60
2022-12-15T20:08:33.871Z,-1.90
2022-12-15T20:11:02.122Z,-1.90
2022-12-15T20:13:30.938Z,-2.10
2022-12-15T20:15:59.436Z,-2.00
2022-12-15T20:18:27.597Z,-1.90
2022-12-15T20:20:55.859Z,-1.70
2022-12-15T20:23:27.396Z,-1.80
2022-12-15T20:25:56.311Z,-2.00
2022-12-15T20:28:28.057Z,-2.30
2022-12-15T20:30:57.262Z,-2.60
2022-12-15T20:33:25.890Z,-2.80
2022-12-15T20:35:55.013Z,-2.90
2022-12-15T20:38:31.829Z,-2.80
2022-12-15T20:41:01.137Z,-2.80
2022-12-15T20:43:32.349Z,-2.80
2022-12-15T20:46:05.112Z,-3.00
2022-12-15T20:48:34.869Z,-3.10
2022-12-15T20:51:08.834Z,-3.10
2022-12-15T20:53:40.044Z,-2.60
2022-12-15T20:56:09.309Z,-3.30
2022-12-15T20:58:40.550Z,-3.20
2022-12-15T21:01:22.504Z,-3.30
2022-12-15T21:03:52.960Z,-2.50
2022-12-15T21:09:41.777Z,-3.40
2022-12-15T21:12:25.881Z,-3.40
2022-12-15T21:17:25.699Z,-3.30
2022-12-15T21:19:54.929Z,-3.10
2022-12-15T21:22:25.606Z,-3.00
2022-12-15T21:24:55.998Z,-3.20
2022-12-15T21:27:26.343Z,-3.20
2022-12-15T21:29:54.435Z,-3.40
2022-12-15T21:35:49.466Z,-3.60
2022-12-15T21:38:31.305Z,-3.50
2022-12-15T21:41:03.238Z,-3.40
2022-12-15T21:43:36.575Z,-3.50
2022-12-15T21:46:14.447Z,-3.40
2022-12-15T21:49:00.952Z,-3.30
2022-12-15T21:51:32.504Z,-3.10
2022-12-15T21:54:01.586Z,-3.20
2022-12-15T21:56:30.338Z,-3.30
2022-12-15T21:59:00.625Z,-3.20
2022-12-15T22:01:30.786Z,-3.20
2022-12-15T22:04:02.877Z,-3.00
2022-12-15T22:06:31.491Z,-3.10
2022-12-15T22:09:00.136Z,-1.80
2022-12-15T22:11:29.680Z,-3.00
2022-12-15T22:14:02.786Z,-3.00
2022-12-15T22:16:31.597Z,-3.20
2022-12-15T22:18:59.875Z,-3.10
2022-12-15T22:21:28.433Z,-3.00
2022-12-15T22:23:56.628Z,-2.90
2022-12-15T22:26:29.841Z,-3.00
2022-12-15T22:29:01.431Z,-3.00
2022-12-15T22:33:59.419Z,-2.80
2022-12-15T22:36:28.806Z,-2.80
2022-12-15T22:38:57.463Z,-2.90
2022-12-15T22:41:26.438Z,-3.20
2022-12-15T22:43:56.507Z,-3.00
2022-12-15T22:46:26.386Z,-3.10
2022-12-15T22:48:55.095Z,-3.10
2022-12-15T22:51:23.486Z,-3.20
2022-12-15T22:53:51.650Z,-2.90
2022-12-15T22:56:27.025Z,-3.10
2022-12-15T22:59:00.825Z,-3.10
2022-12-15T23:01:31.201Z,-3.20
2022-12-15T23:04:00.366Z,-3.00
2022-12-15T23:06:29.429Z,-3.00
2022-12-15T23:08:57.688Z,-3.10
2022-12-15T23:11:41.457Z,-3.10
2022-12-15T23:14:12.312Z,-3.10
2022-12-15T23:16:42.033Z,-3.10
2022-12-15T23:19:23.824Z,-2.90
2022-12-15T23:21:52.632Z,-3.30
2022-12-15T23:24:20.815Z,-3.10
2022-12-15T23:26:49.093Z,-3.00
2022-12-15T23:29:17.612Z,-3.20
2022-12-15T23:31:47.492Z,-3.30
2022-12-15T23:34:15.749Z,-3.10
2022-12-15T23:36:43.927Z,-3.20
2022-12-15T23:39:12.158Z,-3.30
2022-12-15T23:41:41.424Z,-3.40
2022-12-15T23:44:09.577Z,-3.40
2022-12-15T23:46:37.790Z,-2.90
2022-12-15T23:49:07.958Z,-3.30
2022-12-15T23:51:36.140Z,-3.30
2022-12-15T23:54:04.254Z,-3.40
2022-12-15T23:56:32.413Z,-3.60
2022-12-15T23:59:01.076Z,-3.60
